createdAt,value
2023-03-27T00:01:18.283Z,1.80
2023-03-27T00:04:03.796Z,1.90
2023-03-27T00:06:50.076Z,2.80
2023-03-27T00:09:37.102Z,1.70
2023-03-27T00:12:22.641Z,2.20
2023-03-27T00:15:08.401Z,2.03
2023-03-27T00:17:54.243Z,1.75
2023-03-27T00:20:40.079Z,1.92
2023-03-27T00:23:25.410Z,2.17
2023-03-27T00:26:11.854Z,1.98
2023-03-27T00:28:57.282Z,1.70
2023-03-27T00:31:42.440Z,1.95
2023-03-27T00:34:28.934Z,1.83
2023-03-27T00:37:14.406Z,1.65
2023-03-27T00:40:00.265Z,2.10
2023-03-27T00:42:48.065Z,1.83
2023-03-27T00:45:33.759Z,1.85
2023-03-27T00:48:20.655Z,2.10
2023-03-27T00:51:08.981Z,1.60
2023-03-27T00:53:55.552Z,2.10
2023-03-27T00:56:41.999Z,1.60
2023-03-27T00:59:32.145Z,1.35
2023-03-27T01:02:18.189Z,2.10
2023-03-27T01:05:04.766Z,1.60
2023-03-27T01:08:00.578Z,1.95
2023-03-27T01:11:17.111Z,1.95
2023-03-27T01:14:08.722Z,1.95
2023-03-27T01:17:06.856Z,1.70
2023-03-27T01:20:13.712Z,1.80
2023-03-27T01:23:36.055Z,1.85
2023-03-27T01:26:45.360Z,1.95
2023-03-27T01:29:41.746Z,1.65
2023-03-27T01:32:53.818Z,1.92
2023-03-27T01:36:00.765Z,1.90
2023-03-27T01:39:17.668Z,2.05
2023-03-27T01:42:32.622Z,2.40
2023-03-27T01:45:30.725Z,2.13
2023-03-27T01:48:43.554Z,2.13
2023-03-27T01:51:39.433Z,1.85
2023-03-27T01:54:41.134Z,1.75
2023-03-27T01:57:34.271Z,1.65
2023-03-27T02:00:23.502Z,2.10
2023-03-27T02:03:15.307Z,1.80
2023-03-27T02:06:20.791Z,2.20
2023-03-27T02:09:12.944Z,2.10
2023-03-27T02:11:58.240Z,1.83
2023-03-27T02:14:53.563Z,2.00
2023-03-27T02:17:44.729Z,1.83
2023-03-27T02:20:29.897Z,1.60
2023-03-27T02:23:16.416Z,1.70
2023-03-27T02:26:03.604Z,2.10
2023-03-27T02:28:55.212Z,1.95
2023-03-27T02:31:51.730Z,2.00
2023-03-27T02:35:03.912Z,1.90
2023-03-27T02:38:04.393Z,1.98
2023-03-27T02:41:27.113Z,1.40
2023-03-27T02:44:53.477Z,2.08
2023-03-27T02:47:46.447Z,1.63
2023-03-27T02:50:38.117Z,1.40
2023-03-27T02:53:34.809Z,1.58
2023-03-27T02:56:23.981Z,1.70
2023-03-27T02:59:42.285Z,1.48
2023-03-27T03:02:33.678Z,1.40
2023-03-27T03:05:23.054Z,1.70
2023-03-27T03:08:10.181Z,1.88
2023-03-27T03:11:01.553Z,2.05
2023-03-27T03:13:46.822Z,1.30
2023-03-27T03:16:32.381Z,1.63
2023-03-27T03:19:17.616Z,1.50
2023-03-27T03:22:03.889Z,1.35
2023-03-27T03:24:50.950Z,1.15
2023-03-27T03:27:38.131Z,1.20
2023-03-27T03:30:30.215Z,1.33
2023-03-27T03:33:21.888Z,1.40
2023-03-27T03:36:07.706Z,1.38
2023-03-27T03:38:55.504Z,1.10
2023-03-27T03:41:41.744Z,1.55
2023-03-27T03:44:26.759Z,1.50
2023-03-27T03:47:13.127Z,1.38
2023-03-27T03:49:58.910Z,1.60
2023-03-27T03:52:45.529Z,1.33
2023-03-27T03:55:30.754Z,1.58
2023-03-27T03:58:16.393Z,1.63
2023-03-27T04:01:02.841Z,1.38
2023-03-27T04:03:55.513Z,1.40
2023-03-27T04:06:43.178Z,1.52
2023-03-27T04:09:28.320Z,1.70
2023-03-27T04:12:23.477Z,1.80
2023-03-27T04:15:17.362Z,1.90
2023-03-27T04:18:32.412Z,1.95
2023-03-27T04:21:19.595Z,2.30
2023-03-27T04:24:08.246Z,2.38
2023-03-27T04:27:03.284Z,2.13
2023-03-27T04:29:58.239Z,1.77
2023-03-27T04:33:02.723Z,2.13
2023-03-27T04:36:09.528Z,1.67
2023-03-27T04:39:04.146Z,1.73
2023-03-27T04:41:50.953Z,1.40
2023-03-27T04:44:37.551Z,1.73
2023-03-27T04:47:22.807Z,1.80
2023-03-27T04:50:12.872Z,1.90
2023-03-27T04:53:00.644Z,1.58
2023-03-27T04:55:52.636Z,1.58
2023-03-27T04:58:38.056Z,1.50
2023-03-27T05:01:30.013Z,2.00
2023-03-27T05:04:33.724Z,1.83
2023-03-27T05:07:39.860Z,1.70
2023-03-27T05:10:26.301Z,1.63
2023-03-27T05:13:11.595Z,1.27
2023-03-27T05:15:59.319Z,1.55
2023-03-27T05:18:50.617Z,1.50
2023-03-27T05:21:37.967Z,1.33
2023-03-27T05:24:27.491Z,1.77
2023-03-27T05:27:12.789Z,1.60
2023-03-27T05:30:00.975Z,1.50
2023-03-27T05:32:51.716Z,1.45
2023-03-27T05:35:46.122Z,1.30
2023-03-27T05:38:33.073Z,1.50
2023-03-27T05:41:31.244Z,1.58
2023-03-27T05:44:16.660Z,1.48
2023-03-27T05:47:05.133Z,1.60
2023-03-27T05:49:50.789Z,2.08
2023-03-27T05:52:36.444Z,1.73
2023-03-27T05:55:21.938Z,2.10
2023-03-27T05:58:09.904Z,2.20
2023-03-27T06:00:55.878Z,2.10
2023-03-27T06:03:41.698Z,2.33
2023-03-27T06:06:35.393Z,1.67
2023-03-27T06:09:21.570Z,1.88
2023-03-27T06:12:33.355Z,2.08
2023-03-27T06:15:27.454Z,2.10
2023-03-27T06:21:12.755Z,2.10
2023-03-27T06:23:58.116Z,1.77
2023-03-27T06:26:44.820Z,1.77
2023-03-27T06:29:31.246Z,1.70
2023-03-27T06:32:16.976Z,1.90
2023-03-27T06:35:08.170Z,1.90
2023-03-27T06:38:07.728Z,1.90
2023-03-27T06:40:53.382Z,1.98
2023-03-27T06:43:38.873Z,2.25
2023-03-27T06:46:44.564Z,2.00
2023-03-27T06:49:47.754Z,1.70
2023-03-27T06:52:37.880Z,1.70
2023-03-27T06:55:40.608Z,2.08
2023-03-27T06:58:25.785Z,1.88
2023-03-27T07:01:12.585Z,1.80
2023-03-27T07:04:21.222Z,1.90
2023-03-27T07:07:18.082Z,1.85
2023-03-27T07:10:05.000Z,2.10
2023-03-27T07:12:52.850Z,2.00
2023-03-27T07:15:37.898Z,2.25
2023-03-27T07:18:23.559Z,1.70
2023-03-27T07:21:13.034Z,2.08
2023-03-27T07:23:58.607Z,1.92
2023-03-27T07:26:50.388Z,2.25
2023-03-27T07:29:41.398Z,1.90
2023-03-27T07:32:37.087Z,1.80
2023-03-27T07:35:23.338Z,2.42
2023-03-27T07:38:27.414Z,2.00
2023-03-27T07:41:24.613Z,1.80
2023-03-27T07:44:35.236Z,1.60
2023-03-27T07:47:25.246Z,1.77
2023-03-27T07:50:11.719Z,1.65
2023-03-27T07:52:58.187Z,2.60
2023-03-27T07:55:43.361Z,2.97
2023-03-27T07:58:28.585Z,2.00
2023-03-27T08:01:14.764Z,1.92
2023-03-27T08:04:00.692Z,2.40
2023-03-27T08:06:46.587Z,2.00
2023-03-27T08:09:37.523Z,1.83
2023-03-27T08:12:23.202Z,1.90
2023-03-27T08:15:15.759Z,1.70
2023-03-27T08:18:01.514Z,1.67
2023-03-27T08:20:49.731Z,1.42
2023-03-27T08:23:37.508Z,1.80
2023-03-27T08:26:41.170Z,1.63
2023-03-27T08:29:30.561Z,2.08
2023-03-27T08:32:16.808Z,1.73
2023-03-27T08:35:07.400Z,1.35
2023-03-27T08:37:53.947Z,1.13
2023-03-27T08:41:00.222Z,1.50
2023-03-27T08:43:53.254Z,1.50
2023-03-27T08:46:51.439Z,1.60
2023-03-27T08:49:43.045Z,1.50
2023-03-27T08:52:40.425Z,1.38
2023-03-27T08:55:46.516Z,1.55
2023-03-27T08:58:51.657Z,2.08
2023-03-27T09:01:58.461Z,1.60
2023-03-27T09:04:56.159Z,1.58
2023-03-27T09:07:48.245Z,1.73
2023-03-27T09:10:51.620Z,1.20
2023-03-27T09:13:51.597Z,1.45
2023-03-27T09:16:49.189Z,1.38
2023-03-27T09:20:13.332Z,2.15
2023-03-27T09:23:13.614Z,1.60
2023-03-27T09:26:25.966Z,1.65
2023-03-27T09:32:43.547Z,1.63
2023-03-27T09:35:29.644Z,1.98
2023-03-27T09:38:39.290Z,1.08
2023-03-27T09:41:37.274Z,1.23
2023-03-27T09:44:39.940Z,1.40
2023-03-27T09:47:38.113Z,1.60
2023-03-27T09:50:41.295Z,1.73
2023-03-27T09:53:32.629Z,1.85
2023-03-27T09:56:24.663Z,1.80
2023-03-27T09:59:24.438Z,1.87
2023-03-27T10:02:22.848Z,1.92
2023-03-27T10:05:18.696Z,1.77
2023-03-27T10:08:37.698Z,1.40
2023-03-27T10:11:31.491Z,1.08
2023-03-27T10:14:26.134Z,1.30
2023-03-27T10:17:24.366Z,1.25
2023-03-27T10:20:18.682Z,1.20
2023-03-27T10:23:22.660Z,1.38
2023-03-27T10:26:13.552Z,1.52
2023-03-27T10:29:29.099Z,2.00
2023-03-27T10:32:14.510Z,1.77
2023-03-27T10:35:24.202Z,1.95
2023-03-27T10:38:29.249Z,1.60
2023-03-27T10:41:28.804Z,1.42
2023-03-27T10:44:19.776Z,1.73
2023-03-27T10:47:22.042Z,1.42
2023-03-27T10:50:18.546Z,2.08
2023-03-27T10:53:27.329Z,1.48
2023-03-27T10:56:37.709Z,1.80
2023-03-27T10:59:42.764Z,1.45
2023-03-27T11:03:00.448Z,2.38
2023-03-27T11:05:48.490Z,1.38
2023-03-27T11:09:16.077Z,0.97
2023-03-27T11:12:14.512Z,1.48
2023-03-27T11:15:18.100Z,1.50
2023-03-27T11:18:10.680Z,1.42
2023-03-27T11:21:15.844Z,1.08
2023-03-27T11:24:28.586Z,1.20
2023-03-27T11:27:23.223Z,1.65
2023-03-27T11:30:08.407Z,1.30
2023-03-27T11:33:27.624Z,1.95
2023-03-27T11:36:46.581Z,1.60
2023-03-27T11:42:42.391Z,1.63
2023-03-27T11:45:42.005Z,1.55
2023-03-27T11:51:24.946Z,1.80
2023-03-27T11:54:30.545Z,1.52
2023-03-27T11:57:26.298Z,1.70
2023-03-27T12:00:48.661Z,1.30
2023-03-27T12:03:37.426Z,1.35
2023-03-27T12:06:39.571Z,1.20
2023-03-27T12:09:46.576Z,0.90
2023-03-27T12:13:38.530Z,1.00
2023-03-27T12:16:41.039Z,1.63
2023-03-27T12:19:43.115Z,1.17
2023-03-27T12:22:44.636Z,1.45
2023-03-27T12:25:41.140Z,1.67
2023-03-27T12:29:22.660Z,1.77
2023-03-27T12:32:55.684Z,1.65
2023-03-27T12:35:46.864Z,1.60
2023-03-27T12:38:38.735Z,1.40
2023-03-27T12:41:29.784Z,1.50
2023-03-27T12:44:29.150Z,1.65
2023-03-27T12:47:24.755Z,1.48
2023-03-27T12:50:27.355Z,1.20
2023-03-27T12:53:29.456Z,1.13
2023-03-27T12:56:30.708Z,1.77
2023-03-27T12:59:26.320Z,1.77
2023-03-27T13:02:15.018Z,1.83
2023-03-27T13:05:27.555Z,1.65
2023-03-27T13:08:42.330Z,1.75
2023-03-27T13:11:54.688Z,1.42
2023-03-27T13:15:00.564Z,1.30
2023-03-27T13:18:29.322Z,1.20
2023-03-27T13:21:44.462Z,1.55
2023-03-27T13:25:00.507Z,1.00
2023-03-27T13:28:16.785Z,1.20
2023-03-27T13:31:43.875Z,1.25
2023-03-27T13:34:41.138Z,1.45
2023-03-27T13:37:36.759Z,1.20
2023-03-27T13:40:33.328Z,1.05
2023-03-27T13:43:35.281Z,1.25
2023-03-27T13:46:29.933Z,0.98
2023-03-27T13:49:34.817Z,1.20
2023-03-27T13:52:44.575Z,1.75
2023-03-27T13:56:05.352Z,1.50
2023-03-27T13:59:28.084Z,0.98
2023-03-27T14:02:16.217Z,1.10
2023-03-27T14:05:27.360Z,1.08
2023-03-27T14:08:45.469Z,1.58
2023-03-27T14:12:15.183Z,1.25
2023-03-27T14:15:29.871Z,1.90
2023-03-27T14:18:56.899Z,1.80
2023-03-27T14:21:53.311Z,1.08
2023-03-27T14:24:48.949Z,1.17
2023-03-27T14:27:54.142Z,1.35
2023-03-27T14:30:49.274Z,1.42
2023-03-27T14:34:03.266Z,1.60
2023-03-27T14:36:52.350Z,1.23
2023-03-27T14:39:54.230Z,1.42
2023-03-27T14:42:39.790Z,1.50
2023-03-27T14:45:27.657Z,1.13
2023-03-27T14:48:25.763Z,1.33
2023-03-27T14:51:43.078Z,1.55
2023-03-27T14:54:52.235Z,1.20
2023-03-27T14:57:42.009Z,1.25
2023-03-27T15:00:32.062Z,1.67
2023-03-27T15:03:21.650Z,1.42
2023-03-27T15:06:19.121Z,1.80
2023-03-27T15:09:18.955Z,1.35
2023-03-27T15:12:24.231Z,1.65
2023-03-27T15:15:23.829Z,1.40
2023-03-27T15:18:12.277Z,0.88
2023-03-27T15:21:16.973Z,1.40
2023-03-27T15:24:10.432Z,1.88
2023-03-27T15:26:56.603Z,1.40
2023-03-27T15:29:53.281Z,1.77
2023-03-27T15:32:50.133Z,2.70
2023-03-27T15:35:36.722Z,2.25
2023-03-27T15:38:29.324Z,1.92
2023-03-27T15:41:14.626Z,1.77
2023-03-27T15:44:17.995Z,2.92
2023-03-27T15:47:03.392Z,1.92
2023-03-27T15:49:48.607Z,1.90
2023-03-27T15:52:34.114Z,2.63
2023-03-27T15:55:33.052Z,2.80
2023-03-27T15:58:43.486Z,1.80
2023-03-27T16:01:33.578Z,1.60
2023-03-27T16:04:21.913Z,1.60
2023-03-27T16:07:22.615Z,2.53
2023-03-27T16:10:09.117Z,1.55
2023-03-27T16:13:02.398Z,2.05
2023-03-27T16:15:57.939Z,2.28
2023-03-27T16:18:43.073Z,2.08
2023-03-27T16:21:28.424Z,1.50
2023-03-27T16:24:13.484Z,1.70
2023-03-27T16:26:59.023Z,1.98
2023-03-27T16:29:44.212Z,1.58
2023-03-27T16:32:29.879Z,1.13
2023-03-27T16:35:15.895Z,1.27
2023-03-27T16:38:01.367Z,1.50
2023-03-27T16:40:46.767Z,1.58
2023-03-27T16:43:32.692Z,1.60
2023-03-27T16:46:24.027Z,1.77
2023-03-27T16:49:12.412Z,1.65
2023-03-27T16:51:57.847Z,1.98
2023-03-27T16:54:43.288Z,1.65
2023-03-27T16:57:28.601Z,1.90
2023-03-27T17:00:15.988Z,1.73
2023-03-27T17:03:01.015Z,2.38
2023-03-27T17:05:46.536Z,1.98
2023-03-27T17:08:32.016Z,1.73
2023-03-27T17:11:21.203Z,1.42
2023-03-27T17:14:07.003Z,1.98
2023-03-27T17:16:52.211Z,1.60
2023-03-27T17:19:37.427Z,1.88
2023-03-27T17:22:22.829Z,1.67
2023-03-27T17:25:09.922Z,2.10
2023-03-27T17:27:55.258Z,1.65
2023-03-27T17:30:56.645Z,1.80
2023-03-27T17:33:46.770Z,2.20
2023-03-27T17:36:41.488Z,1.90
2023-03-27T17:39:33.917Z,2.10
2023-03-27T17:42:19.050Z,2.53
2023-03-27T17:45:06.165Z,2.05
2023-03-27T17:47:51.231Z,2.28
2023-03-27T17:50:37.421Z,1.70
2023-03-27T17:53:22.907Z,2.15
2023-03-27T17:56:09.429Z,2.05
2023-03-27T17:58:55.851Z,2.55
2023-03-27T18:01:41.167Z,3.20
2023-03-27T18:04:27.099Z,2.55
2023-03-27T18:07:12.316Z,3.13
2023-03-27T18:09:57.983Z,3.15
2023-03-27T18:12:43.432Z,3.72
2023-03-27T18:15:28.548Z,3.38
2023-03-27T18:18:16.233Z,3.65
2023-03-27T18:21:01.533Z,3.53
2023-03-27T18:23:47.060Z,3.50
2023-03-27T18:26:32.625Z,3.78
2023-03-27T18:29:17.763Z,3.35
2023-03-27T18:32:04.868Z,3.42
2023-03-27T18:34:50.994Z,1.88
2023-03-27T18:37:36.818Z,1.80
2023-03-27T18:40:22.678Z,1.90
2023-03-27T18:43:08.247Z,1.20
2023-03-27T18:46:03.972Z,1.83
2023-03-27T18:48:49.792Z,1.75
2023-03-27T18:51:35.011Z,1.65
2023-03-27T18:54:20.283Z,1.40
2023-03-27T18:57:05.537Z,2.10
2023-03-27T18:59:51.148Z,1.67
2023-03-27T19:02:36.643Z,1.83
2023-03-27T19:05:22.249Z,2.08
2023-03-27T19:08:07.849Z,2.00
2023-03-27T19:10:57.339Z,1.73
2023-03-27T19:14:01.814Z,1.90
2023-03-27T19:17:03.191Z,2.08
2023-03-27T19:19:57.097Z,1.83
2023-03-27T19:23:07.734Z,1.45
2023-03-27T19:26:06.725Z,1.40
2023-03-27T19:28:51.816Z,1.60
2023-03-27T19:31:37.773Z,1.10
2023-03-27T19:34:32.692Z,1.80
2023-03-27T19:37:27.860Z,1.30
2023-03-27T19:40:14.075Z,1.15
2023-03-27T19:42:59.334Z,1.60
2023-03-27T19:46:14.958Z,1.67
2023-03-27T19:49:03.955Z,1.95
2023-03-27T19:52:03.673Z,1.08
2023-03-27T19:54:49.072Z,1.30
2023-03-27T19:57:34.321Z,1.10
2023-03-27T20:00:19.942Z,1.35
2023-03-27T20:03:09.764Z,1.20
2023-03-27T20:05:56.154Z,1.50
2023-03-27T20:08:53.455Z,1.48
2023-03-27T20:11:39.287Z,1.45
2023-03-27T20:14:24.405Z,1.00
2023-03-27T20:17:27.069Z,1.30
2023-03-27T20:20:13.614Z,1.58
2023-03-27T20:23:01.512Z,1.77
2023-03-27T20:25:51.469Z,1.45
2023-03-27T20:28:36.684Z,1.48
2023-03-27T20:31:22.135Z,1.75
2023-03-27T20:34:08.164Z,1.20
2023-03-27T20:36:54.781Z,1.45
2023-03-27T20:39:47.954Z,1.60
2023-03-27T20:42:38.898Z,1.30
2023-03-27T20:45:26.639Z,1.27
2023-03-27T20:48:18.033Z,1.58
2023-03-27T20:51:06.606Z,1.83
2023-03-27T20:53:55.652Z,1.45
2023-03-27T20:56:41.259Z,1.30
2023-03-27T20:59:26.972Z,1.30
2023-03-27T21:02:18.301Z,1.10
2023-03-27T21:05:03.835Z,1.60
2023-03-27T21:07:51.215Z,1.30
2023-03-27T21:10:38.765Z,1.48
2023-03-27T21:13:23.743Z,1.05
2023-03-27T21:16:09.436Z,1.23
2023-03-27T21:18:54.621Z,1.40
2023-03-27T21:21:40.281Z,1.20
2023-03-27T21:24:25.520Z,1.08
2023-03-27T21:27:10.817Z,1.55
2023-03-27T21:29:56.237Z,1.60
2023-03-27T21:32:42.033Z,1.08
2023-03-27T21:35:27.471Z,1.60
2023-03-27T21:38:15.444Z,1.30
2023-03-27T21:41:03.686Z,1.20
2023-03-27T21:43:48.758Z,1.73
2023-03-27T21:46:34.288Z,1.50
2023-03-27T21:49:19.580Z,1.00
2023-03-27T21:52:04.788Z,2.15
2023-03-27T21:55:00.494Z,1.60
2023-03-27T21:57:48.533Z,1.63
2023-03-27T22:00:33.959Z,1.50
2023-03-27T22:03:19.268Z,1.35
2023-03-27T22:06:12.276Z,1.20
2023-03-27T22:08:58.315Z,1.70
2023-03-27T22:11:44.053Z,1.30
2023-03-27T22:14:29.341Z,1.50
2023-03-27T22:17:15.492Z,1.52
2023-03-27T22:20:00.981Z,1.35
2023-03-27T22:22:46.629Z,1.30
2023-03-27T22:25:31.824Z,1.30
2023-03-27T22:28:17.211Z,1.30
2023-03-27T22:31:04.464Z,2.03
2023-03-27T22:33:49.963Z,1.60
2023-03-27T22:36:35.563Z,1.08
2023-03-27T22:39:20.804Z,1.40
2023-03-27T22:42:05.982Z,1.30
2023-03-27T22:44:51.477Z,1.23
2023-03-27T22:47:36.652Z,1.80
2023-03-27T22:50:21.703Z,1.50
2023-03-27T22:53:06.813Z,1.40
2023-03-27T22:55:54.739Z,1.80
2023-03-27T22:58:40.238Z,1.13
2023-03-27T23:01:25.493Z,1.10
2023-03-27T23:04:10.636Z,1.00
2023-03-27T23:06:56.302Z,1.10
2023-03-27T23:09:41.544Z,1.10
2023-03-27T23:12:26.736Z,1.08
2023-03-27T23:15:12.097Z,1.20
2023-03-27T23:17:57.207Z,1.42
2023-03-27T23:20:42.641Z,1.02
2023-03-27T23:23:30.255Z,1.10
2023-03-27T23:26:16.209Z,1.30
2023-03-27T23:29:01.508Z,1.13
2023-03-27T23:31:49.864Z,1.50
2023-03-27T23:34:35.612Z,1.23
2023-03-27T23:37:21.427Z,1.60
2023-03-27T23:40:07.488Z,1.42
2023-03-27T23:42:52.829Z,1.20
2023-03-27T23:45:38.147Z,1.30
2023-03-27T23:48:23.696Z,1.38
2023-03-27T23:51:10.179Z,1.13
2023-03-27T23:53:55.598Z,1.33
2023-03-27T23:56:41.246Z,1.13
2023-03-27T23:59:26.734Z,1.20
